createdAt,value
2022-09-23T00:00:44.651Z,84
2022-09-23T00:01:24.870Z,85
2022-09-23T00:02:26.578Z,85
2022-09-23T00:03:31.021Z,84
2022-09-23T00:04:23.724Z,84
2022-09-23T00:05:23.025Z,84
2022-09-23T00:06:24.770Z,84
2022-09-23T00:07:36.215Z,85
2022-09-23T00:08:26.088Z,84
2022-09-23T00:09:22.208Z,85
2022-09-23T00:10:41.116Z,85
2022-09-23T00:11:25.948Z,85
2022-09-23T00:12:22.966Z,86
2022-09-23T00:13:23.548Z,85
2022-09-23T00:14:31.059Z,86
2022-09-23T00:15:26.549Z,86
2022-09-23T00:16:23.033Z,85
2022-09-23T00:17:30.538Z,86
2022-09-23T00:18:28.223Z,85
2022-09-23T00:19:22.564Z,86
2022-09-23T00:20:27.959Z,86
2022-09-23T00:21:21.988Z,86
2022-09-23T00:22:26.876Z,85
2022-09-23T00:23:24.221Z,85
2022-09-23T00:24:32.365Z,85
2022-09-23T00:25:26.621Z,86
2022-09-23T00:26:21.920Z,85
2022-09-23T00:27:23.391Z,85
2022-09-23T00:28:24.643Z,87
2022-09-23T00:29:24.769Z,87
2022-09-23T00:30:23.693Z,87
2022-09-23T00:31:30.517Z,86
2022-09-23T00:32:27.877Z,86
2022-09-23T00:33:26.450Z,86
2022-09-23T00:34:20.456Z,86
2022-09-23T00:35:29.526Z,86
2022-09-23T00:36:21.503Z,86
2022-09-23T00:37:22.590Z,85
2022-09-23T00:38:32.594Z,85
2022-09-23T00:39:26.538Z,86
2022-09-23T00:40:27.951Z,86
2022-09-23T00:41:27.689Z,85
2022-09-23T00:42:21.595Z,86
2022-09-23T00:43:28.166Z,85
2022-09-23T00:44:20.773Z,85
2022-09-23T00:45:32.252Z,85
2022-09-23T00:46:26.785Z,85
2022-09-23T00:47:27.356Z,85
2022-09-23T00:48:32.937Z,85
2022-09-23T00:49:27.171Z,85
2022-09-23T00:50:24.606Z,85
2022-09-23T00:51:23.858Z,85
2022-09-23T00:52:33.759Z,85
2022-09-23T00:53:29.067Z,85
2022-09-23T00:54:24.835Z,86
2022-09-23T00:55:37.948Z,85
2022-09-23T00:56:28.834Z,85
2022-09-23T00:57:28.553Z,86
2022-09-23T00:58:20.635Z,86
2022-09-23T00:59:19.957Z,86
2022-09-23T01:00:51.421Z,86
2022-09-23T01:01:31.215Z,86
2022-09-23T01:02:27.361Z,85
2022-09-23T02:12:29.632Z,88
2022-09-23T02:13:19.845Z,89
2022-09-23T02:14:27.588Z,88
2022-09-23T02:15:24.806Z,88
2022-09-23T02:16:44.009Z,88
2022-09-23T03:24:28.096Z,87
2022-09-23T03:25:27.163Z,87
2022-09-23T03:26:34.561Z,88
2022-09-23T03:27:34.461Z,88
2022-09-23T03:28:50.506Z,89
2022-09-23T03:29:34.893Z,89
2022-09-23T03:30:28.912Z,89
2022-09-23T03:31:24.829Z,89
2022-09-23T03:32:24.343Z,89
2022-09-23T03:33:35.761Z,89
2022-09-23T03:34:23.544Z,89
2022-09-23T03:35:24.262Z,89
2022-09-23T03:36:21.860Z,89
2022-09-23T03:37:32.791Z,89
2022-09-23T03:38:24.948Z,89
2022-09-23T03:39:22.187Z,90
2022-09-23T03:40:32.098Z,89
2022-09-23T03:41:22.579Z,90
2022-09-23T03:42:23.470Z,90
2022-09-23T03:43:25.810Z,90
2022-09-23T03:44:33.680Z,90
2022-09-23T03:45:26.190Z,91
2022-09-23T03:46:21.063Z,91
2022-09-23T03:47:32.766Z,90
2022-09-23T03:48:29.072Z,90
2022-09-23T03:49:27.043Z,90
2022-09-23T03:50:33.478Z,90
2022-09-23T03:51:22.982Z,90
2022-09-23T03:52:22.023Z,90
2022-09-23T03:53:23.285Z,90
2022-09-23T03:54:32.131Z,89
2022-09-23T03:55:38.377Z,89
2022-09-23T03:56:23.362Z,89
2022-09-23T03:57:34.807Z,90
2022-09-23T03:58:29.023Z,90
2022-09-23T03:59:22.795Z,89
2022-09-23T04:00:25.634Z,89
2022-09-23T04:01:22.753Z,89
2022-09-23T04:02:25.896Z,89
2022-09-23T04:03:26.178Z,90
2022-09-23T04:04:34.720Z,89
2022-09-23T04:05:32.644Z,90
2022-09-23T04:06:27.659Z,91
2022-09-23T04:07:21.612Z,91
2022-09-23T04:08:29.437Z,91
2022-09-23T04:09:27.197Z,91
2022-09-23T04:10:22.765Z,91
2022-09-23T04:11:33.969Z,91
2022-09-23T04:12:29.271Z,91
2022-09-23T04:13:23.956Z,91
2022-09-23T04:14:21.705Z,91
2022-09-23T04:15:31.014Z,91
2022-09-23T04:16:24.813Z,91
2022-09-23T04:17:26.372Z,91
2022-09-23T04:18:32.772Z,91
2022-09-23T04:19:30.312Z,91
2022-09-23T04:20:25.034Z,91
2022-09-23T04:21:21.911Z,92
2022-09-23T04:22:30.972Z,91
2022-09-23T04:23:28.091Z,92
2022-09-23T04:24:19.792Z,91
2022-09-23T04:25:32.888Z,91
2022-09-23T04:26:30.010Z,91
2022-09-23T04:27:25.058Z,92
2022-09-23T04:28:25.888Z,92
2022-09-23T04:29:21.860Z,91
2022-09-23T04:30:22.275Z,90
2022-09-23T04:31:28.618Z,91
2022-09-23T04:32:34.596Z,92
2022-09-23T04:33:28.947Z,92
2022-09-23T04:34:26.545Z,91
2022-09-23T04:35:21.107Z,90
2022-09-23T04:36:30.173Z,91
2022-09-23T04:37:26.998Z,92
2022-09-23T04:38:25.522Z,92
2022-09-23T04:39:21.365Z,92
2022-09-23T04:40:33.149Z,92
2022-09-23T04:41:29.920Z,91
2022-09-23T04:42:22.925Z,92
2022-09-23T04:43:31.812Z,92
2022-09-23T04:44:22.757Z,92
2022-09-23T04:45:22.955Z,92
2022-09-23T04:46:26.780Z,92
2022-09-23T04:47:24.040Z,92
2022-09-23T04:48:29.037Z,92
2022-09-23T04:49:21.995Z,92
2022-09-23T04:50:33.893Z,92
2022-09-23T04:51:28.380Z,92
2022-09-23T04:52:19.737Z,92
2022-09-23T04:53:29.885Z,91
2022-09-23T04:54:24.882Z,91
2022-09-23T04:55:26.622Z,91
2022-09-23T04:56:23.574Z,92
2022-09-23T04:57:22.256Z,92
2022-09-23T04:58:25.461Z,91
2022-09-23T04:59:40.092Z,91
2022-09-23T05:00:30.018Z,91
2022-09-23T05:01:29.643Z,91
2022-09-23T05:02:21.885Z,91
2022-09-23T05:03:20.852Z,91
2022-09-23T05:04:25.889Z,91
2022-09-23T05:05:27.632Z,92
2022-09-23T05:06:23.471Z,91
2022-09-23T05:07:22.305Z,91
2022-09-23T05:08:24.853Z,91
2022-09-23T05:09:28.450Z,90
2022-09-23T05:10:25.459Z,90
2022-09-23T05:11:33.560Z,91
2022-09-23T05:12:30.073Z,91
2022-09-23T05:13:24.062Z,91
2022-09-23T05:14:25.416Z,91
2022-09-23T05:15:22.808Z,91
2022-09-23T05:16:25.305Z,91
2022-09-23T05:17:21.308Z,91
2022-09-23T05:18:31.022Z,90
2022-09-23T05:19:28.537Z,90
2022-09-23T05:20:24.479Z,90
2022-09-23T05:21:28.985Z,91
2022-09-23T05:22:21.659Z,90
2022-09-23T05:23:25.247Z,91
2022-09-23T05:24:21.188Z,91
2022-09-23T05:25:38.441Z,91
2022-09-23T05:26:20.746Z,91
2022-09-23T05:27:25.066Z,91
2022-09-23T05:28:32.929Z,91
2022-09-23T05:29:25.939Z,91
2022-09-23T05:30:25.411Z,91
2022-09-23T05:31:21.528Z,90
2022-09-23T05:32:26.748Z,91
2022-09-23T05:33:23.788Z,90
2022-09-23T05:34:23.121Z,89
2022-09-23T05:35:32.822Z,90
2022-09-23T05:36:37.887Z,90
2022-09-23T05:37:25.018Z,90
2022-09-23T05:38:21.060Z,90
2022-09-23T05:39:28.329Z,90
2022-09-23T05:40:19.774Z,91
2022-09-23T05:41:23.315Z,91
2022-09-23T05:42:32.680Z,91
2022-09-23T05:43:22.178Z,91
2022-09-23T05:44:24.102Z,90
2022-09-23T05:45:23.011Z,91
2022-09-23T05:46:31.997Z,91
2022-09-23T05:47:23.743Z,91
2022-09-23T05:48:23.881Z,91
2022-09-23T05:49:42.866Z,91
2022-09-23T05:50:28.855Z,90
2022-09-23T05:51:30.121Z,90
2022-09-23T05:52:25.575Z,91
2022-09-23T05:53:31.302Z,91
2022-09-23T05:54:27.908Z,91
2022-09-23T05:55:24.380Z,91
2022-09-23T05:56:34.310Z,91
2022-09-23T05:57:30.666Z,90
2022-09-23T05:58:29.246Z,91
2022-09-23T05:59:21.812Z,91
2022-09-23T06:00:26.944Z,91
2022-09-23T06:01:28.511Z,91
2022-09-23T06:02:26.345Z,91
2022-09-23T06:03:35.909Z,91
2022-09-23T06:04:31.646Z,91
2022-09-23T06:05:26.979Z,91
2022-09-23T06:06:23.215Z,91
2022-09-23T06:07:29.388Z,91
2022-09-23T06:08:27.868Z,91
2022-09-23T06:09:25.935Z,92
2022-09-23T06:10:22.298Z,92
2022-09-23T06:11:24.874Z,92
2022-09-23T06:12:25.337Z,92
2022-09-23T06:13:24.118Z,92
2022-09-23T06:14:32.276Z,91
2022-09-23T06:15:21.341Z,91
2022-09-23T06:16:25.430Z,91
2022-09-23T06:17:27.304Z,91
2022-09-23T06:18:29.191Z,91
2022-09-23T06:19:27.088Z,91
2022-09-23T06:20:20.815Z,91
2022-09-23T06:21:35.034Z,91
2022-09-23T06:22:28.095Z,91
2022-09-23T06:23:26.153Z,91
2022-09-23T06:24:32.923Z,91
2022-09-23T06:25:23.383Z,91
2022-09-23T06:26:26.533Z,91
2022-09-23T06:27:21.358Z,91
2022-09-23T06:28:23.090Z,90
2022-09-23T06:29:29.805Z,90
2022-09-23T06:30:25.546Z,90
2022-09-23T06:31:23.171Z,91
2022-09-23T06:32:31.008Z,91
2022-09-23T06:33:33.467Z,91
2022-09-23T06:34:21.661Z,91
2022-09-23T06:35:34.422Z,91
2022-09-23T06:36:40.597Z,92
2022-09-23T06:37:25.853Z,92
2022-09-23T06:38:24.694Z,92
2022-09-23T06:39:21.605Z,92
2022-09-23T06:40:27.895Z,92
2022-09-23T06:41:22.895Z,91
2022-09-23T06:42:20.326Z,91
2022-09-23T06:43:27.228Z,91
2022-09-23T06:44:23.788Z,92
2022-09-23T06:45:27.492Z,92
2022-09-23T06:46:28.931Z,92
2022-09-23T06:47:26.142Z,92
2022-09-23T06:48:25.813Z,92
2022-09-23T06:49:24.679Z,92
2022-09-23T06:50:28.159Z,91
2022-09-23T06:51:23.041Z,92
2022-09-23T06:52:28.432Z,92
2022-09-23T06:53:22.106Z,91
2022-09-23T06:54:25.960Z,91
2022-09-23T06:55:21.765Z,91
2022-09-23T06:56:24.408Z,89
2022-09-23T06:57:28.646Z,90
2022-09-23T06:58:23.340Z,91
2022-09-23T06:59:34.713Z,91
2022-09-23T07:00:24.906Z,91
2022-09-23T07:01:27.873Z,90
2022-09-23T07:02:21.531Z,91
2022-09-23T07:03:23.993Z,90
2022-09-23T07:04:29.519Z,90
2022-09-23T07:05:26.056Z,90
2022-09-23T07:06:38.364Z,90
2022-09-23T07:07:25.354Z,89
2022-09-23T07:08:24.398Z,90
2022-09-23T07:09:23.446Z,90
2022-09-23T07:10:30.606Z,89
2022-09-23T07:11:21.934Z,89
2022-09-23T07:12:22.951Z,89
2022-09-23T07:13:24.011Z,90
2022-09-23T07:14:32.510Z,90
2022-09-23T07:15:25.252Z,88
2022-09-23T07:16:22.681Z,90
2022-09-23T07:17:35.599Z,90
2022-09-23T07:18:34.269Z,90
2022-09-23T07:19:24.603Z,90
2022-09-23T07:20:34.079Z,90
2022-09-23T07:21:29.883Z,90
2022-09-23T07:22:26.132Z,89
2022-09-23T07:23:26.813Z,88
2022-09-23T07:24:21.588Z,89
2022-09-23T07:25:28.721Z,88
2022-09-23T07:26:24.255Z,89
2022-09-23T07:27:33.126Z,87
2022-09-23T07:28:29.278Z,89
2022-09-23T07:29:19.867Z,89
2022-09-23T07:30:25.552Z,87
2022-09-23T07:31:35.920Z,88
2022-09-23T07:32:29.696Z,88
2022-09-23T07:33:32.528Z,87
2022-09-23T07:34:36.894Z,88
2022-09-23T07:35:29.081Z,88
2022-09-23T07:36:26.809Z,89
2022-09-23T07:37:21.265Z,89
2022-09-23T07:38:23.694Z,88
2022-09-23T07:39:27.140Z,88
2022-09-23T07:40:24.280Z,86
2022-09-23T07:41:23.773Z,88
2022-09-23T07:42:30.670Z,89
2022-09-23T07:43:25.562Z,88
2022-09-23T07:44:21.299Z,88
2022-09-23T07:45:29.506Z,85
2022-09-23T07:46:20.874Z,86
2022-09-23T07:47:23.700Z,88
2022-09-23T07:48:33.266Z,88
2022-09-23T07:49:20.015Z,88
2022-09-23T07:50:30.062Z,88
2022-09-23T07:51:21.090Z,87
2022-09-23T07:52:23.355Z,87
2022-09-23T07:53:28.274Z,86
2022-09-23T07:54:23.738Z,86
2022-09-23T07:55:33.328Z,87
2022-09-23T07:56:24.234Z,86
2022-09-23T07:57:25.920Z,85
2022-09-23T07:58:23.813Z,84
2022-09-23T07:59:33.994Z,84
2022-09-23T08:00:28.648Z,82
2022-09-23T08:01:28.955Z,83
2022-09-23T08:02:38.725Z,84
2022-09-23T08:03:29.019Z,85
2022-09-23T08:04:26.572Z,86
2022-09-23T08:05:21.681Z,85
2022-09-23T08:06:31.422Z,85
2022-09-23T08:07:30.232Z,85
2022-09-23T08:08:26.732Z,85
2022-09-23T08:09:22.375Z,86
2022-09-23T08:10:30.982Z,85
2022-09-23T08:11:35.529Z,85
2022-09-23T08:12:21.049Z,84
2022-09-23T08:13:32.849Z,85
2022-09-23T08:14:28.880Z,84
2022-09-23T08:15:24.380Z,83
2022-09-23T08:16:22.814Z,81
2022-09-23T08:17:29.520Z,80
2022-09-23T08:18:26.781Z,80
2022-09-23T08:19:26.180Z,80
2022-09-23T08:20:31.414Z,79
2022-09-23T08:21:27.253Z,81
2022-09-23T08:22:27.074Z,81
2022-09-23T08:23:22.691Z,81
2022-09-23T08:24:19.913Z,80
2022-09-23T08:25:25.335Z,79
2022-09-23T08:26:25.375Z,81
2022-09-23T08:27:20.688Z,80
2022-09-23T08:28:28.768Z,79
2022-09-23T08:29:25.547Z,81
2022-09-23T08:30:26.697Z,82
2022-09-23T08:31:23.706Z,82
2022-09-23T08:32:25.322Z,82
2022-09-23T08:33:23.518Z,81
2022-09-23T08:34:27.535Z,78
2022-09-23T08:35:29.296Z,80
2022-09-23T08:36:23.525Z,80
2022-09-23T08:37:22.177Z,79
2022-09-23T08:38:31.868Z,80
2022-09-23T08:39:20.491Z,79
2022-09-23T08:40:22.414Z,81
2022-09-23T08:41:25.787Z,80
2022-09-23T08:42:22.264Z,81
2022-09-23T08:43:25.896Z,80
2022-09-23T08:44:35.676Z,79
2022-09-23T08:45:34.159Z,81
2022-09-23T08:46:25.451Z,80
2022-09-23T08:47:22.359Z,79
2022-09-23T08:48:28.014Z,79
2022-09-23T08:49:27.300Z,79
2022-09-23T08:50:23.312Z,79
2022-09-23T08:51:37.216Z,79
2022-09-23T08:52:24.291Z,77
2022-09-23T08:53:28.243Z,79
2022-09-23T08:54:22.827Z,78
2022-09-23T08:55:31.252Z,75
2022-09-23T08:56:30.716Z,77
2022-09-23T08:57:26.122Z,77
2022-09-23T08:58:36.052Z,77
2022-09-23T08:59:26.400Z,78
2022-09-23T09:00:39.381Z,76
2022-09-23T09:01:25.187Z,78
2022-09-23T09:02:35.271Z,79
2022-09-23T09:03:19.732Z,77
2022-09-23T09:04:26.766Z,76
2022-09-23T09:05:33.519Z,75
2022-09-23T09:06:29.408Z,76
2022-09-23T09:07:36.349Z,76
2022-09-23T09:08:24.744Z,74
2022-09-23T09:09:23.927Z,73
2022-09-23T09:10:24.943Z,73
2022-09-23T09:11:27.763Z,73
2022-09-23T09:12:28.987Z,72
2022-09-23T09:13:36.206Z,71
2022-09-23T09:14:29.124Z,70
2022-09-23T09:15:20.947Z,71
2022-09-23T09:16:42.122Z,69
2022-09-23T09:17:24.003Z,68
2022-09-23T09:18:23.019Z,66
2022-09-23T09:19:28.885Z,66
2022-09-23T09:20:21.858Z,65
2022-09-23T09:21:21.691Z,63
2022-09-23T09:22:26.515Z,62
2022-09-23T09:23:33.080Z,60
2022-09-23T09:24:24.065Z,60
2022-09-23T09:25:25.209Z,60
2022-09-23T09:26:33.217Z,59
2022-09-23T09:27:26.817Z,58
2022-09-23T09:28:26.502Z,58
2022-09-23T09:29:35.015Z,57
2022-09-23T09:30:34.053Z,56
2022-09-23T09:31:31.519Z,55
2022-09-23T09:32:26.156Z,56
2022-09-23T09:33:38.298Z,55
2022-09-23T09:34:35.739Z,55
2022-09-23T09:35:22.088Z,54
2022-09-23T09:36:23.992Z,54
2022-09-23T09:37:31.624Z,53
2022-09-23T09:38:34.428Z,53
2022-09-23T09:39:26.290Z,52
2022-09-23T09:40:36.051Z,51
2022-09-23T09:41:31.184Z,50
2022-09-23T09:42:26.713Z,51
2022-09-23T09:43:23.721Z,50
2022-09-23T09:44:37.077Z,49
2022-09-23T09:45:33.619Z,49
2022-09-23T09:46:26.359Z,49
2022-09-23T09:47:21.661Z,49
2022-09-23T09:48:30.441Z,49
2022-09-23T09:49:40.358Z,49
2022-09-23T09:50:25.408Z,48
2022-09-23T09:51:39.534Z,49
2022-09-23T09:52:31.595Z,48
2022-09-23T09:53:24.609Z,48
2022-09-23T09:54:25.899Z,47
2022-09-23T09:55:31.053Z,46
2022-09-23T09:56:27.978Z,46
2022-09-23T09:57:22.799Z,47
2022-09-23T09:58:21.375Z,48
2022-09-23T09:59:28.924Z,46
2022-09-23T10:00:23.256Z,46
2022-09-23T10:01:31.100Z,46
2022-09-23T10:02:22.085Z,47
2022-09-23T10:03:25.114Z,47
2022-09-23T10:04:23.121Z,47
2022-09-23T10:05:24.819Z,48
2022-09-23T10:06:27.074Z,47
2022-09-23T10:07:27.088Z,47
2022-09-23T10:08:20.771Z,47
2022-09-23T10:09:29.015Z,47
2022-09-23T10:10:33.439Z,47
2022-09-23T10:11:23.223Z,47
2022-09-23T10:12:32.045Z,47
2022-09-23T10:13:25.816Z,46
2022-09-23T10:14:25.342Z,46
2022-09-23T10:15:35.026Z,45
2022-09-23T10:16:31.299Z,45
2022-09-23T10:17:27.953Z,44
2022-09-23T10:18:21.179Z,44
2022-09-23T10:19:35.193Z,44
2022-09-23T10:20:26.997Z,44
2022-09-23T10:21:27.801Z,44
2022-09-23T10:22:28.417Z,44
2022-09-23T10:23:30.851Z,46
2022-09-23T10:24:27.701Z,46
2022-09-23T10:25:22.257Z,47
2022-09-23T10:26:21.747Z,46
2022-09-23T10:27:28.900Z,46
2022-09-23T10:28:39.559Z,47
2022-09-23T10:29:32.099Z,46
2022-09-23T10:30:32.749Z,45
2022-09-23T10:31:40.267Z,45
2022-09-23T10:32:22.850Z,46
2022-09-23T10:33:28.251Z,46
2022-09-23T10:34:30.237Z,46
2022-09-23T10:35:27.437Z,44
2022-09-23T10:36:21.626Z,43
2022-09-23T10:37:21.821Z,44
2022-09-23T10:38:25.414Z,43
2022-09-23T10:39:24.400Z,43
2022-09-23T10:40:24.144Z,42
2022-09-23T10:41:30.041Z,42
2022-09-23T10:42:24.394Z,42
2022-09-23T10:43:25.142Z,43
2022-09-23T10:44:23.021Z,43
2022-09-23T10:45:25.336Z,42
2022-09-23T10:46:22.668Z,42
2022-09-23T10:47:28.857Z,44
2022-09-23T10:48:29.600Z,44
2022-09-23T10:49:23.774Z,44
2022-09-23T10:50:30.256Z,45
2022-09-23T10:51:35.367Z,45
2022-09-23T10:52:25.673Z,45
2022-09-23T10:53:21.528Z,45
2022-09-23T10:54:33.780Z,47
2022-09-23T10:55:24.704Z,47
2022-09-23T10:56:23.266Z,48
2022-09-23T10:57:32.990Z,49
2022-09-23T10:58:31.168Z,49
2022-09-23T10:59:25.254Z,49
2022-09-23T11:00:23.820Z,48
2022-09-23T11:01:35.038Z,48
2022-09-23T11:02:29.675Z,47
2022-09-23T11:03:22.251Z,46
2022-09-23T11:04:36.044Z,46
2022-09-23T11:05:31.640Z,46
2022-09-23T11:06:25.226Z,45
2022-09-23T11:07:21.323Z,45
2022-09-23T11:08:31.064Z,44
2022-09-23T11:09:28.029Z,43
2022-09-23T11:10:42.320Z,44
2022-09-23T11:11:33.243Z,43
2022-09-23T11:12:30.544Z,43
2022-09-23T11:13:22.220Z,43
2022-09-23T11:14:23.571Z,42
2022-09-23T11:15:34.597Z,42
2022-09-23T11:16:29.832Z,42
2022-09-23T11:17:23.154Z,42
2022-09-23T11:18:20.378Z,43
2022-09-23T11:19:29.049Z,42
2022-09-23T11:20:28.055Z,43
2022-09-23T11:21:21.194Z,42
2022-09-23T11:22:32.757Z,43
2022-09-23T11:23:27.196Z,41
2022-09-23T11:24:24.056Z,42
2022-09-23T11:25:25.735Z,41
2022-09-23T11:26:33.113Z,41
2022-09-23T11:27:28.867Z,42
2022-09-23T11:28:23.194Z,43
2022-09-23T11:29:23.552Z,41
2022-09-23T11:30:29.763Z,41
2022-09-23T11:31:24.859Z,40
2022-09-23T11:32:32.156Z,40
2022-09-23T11:33:22.814Z,39
2022-09-23T11:34:24.983Z,40
2022-09-23T11:35:21.233Z,40
2022-09-23T11:36:25.574Z,40
2022-09-23T11:37:24.862Z,40
2022-09-23T11:38:23.149Z,40
2022-09-23T11:39:35.738Z,40
2022-09-23T11:40:27.377Z,40
2022-09-23T11:41:25.012Z,41
2022-09-23T11:42:23.790Z,42
2022-09-23T11:43:36.339Z,42
2022-09-23T11:44:22.674Z,42
2022-09-23T11:45:26.678Z,42
2022-09-23T11:46:34.801Z,42
2022-09-23T11:47:44.806Z,41
2022-09-23T11:48:28.519Z,40
2022-09-23T11:49:25.057Z,41
2022-09-23T11:50:36.122Z,40
2022-09-23T11:51:28.708Z,39
2022-09-23T11:52:27.917Z,40
2022-09-23T11:53:35.443Z,40
2022-09-23T11:54:26.941Z,39
2022-09-23T11:55:28.564Z,39
2022-09-23T11:56:31.333Z,40
2022-09-23T11:57:45.359Z,41
2022-09-23T11:58:29.828Z,39
2022-09-23T11:59:33.638Z,39
2022-09-23T12:00:23.160Z,39
2022-09-23T12:01:36.702Z,40
2022-09-23T12:02:30.242Z,40
2022-09-23T12:03:38.020Z,39
2022-09-23T12:04:31.585Z,39
2022-09-23T12:05:26.250Z,39
2022-09-23T12:06:24.893Z,40
2022-09-23T12:07:21.127Z,40
2022-09-23T12:08:30.171Z,40
2022-09-23T12:09:47.264Z,40
2022-09-23T12:10:21.303Z,41
2022-09-23T12:11:23.149Z,40
2022-09-23T12:12:27.486Z,41
2022-09-23T12:13:27.755Z,42
2022-09-23T12:14:27.691Z,41
2022-09-23T12:15:30.847Z,41
2022-09-23T12:16:20.756Z,41
2022-09-23T12:17:22.904Z,41
2022-09-23T12:18:32.615Z,41
2022-09-23T12:19:27.283Z,40
2022-09-23T12:20:26.155Z,40
2022-09-23T12:21:49.673Z,43
2022-09-23T12:22:25.570Z,43
2022-09-23T12:23:27.300Z,42
2022-09-23T12:24:23.807Z,41
2022-09-23T12:25:32.962Z,41
2022-09-23T12:26:21.410Z,41
2022-09-23T12:27:23.163Z,42
2022-09-23T12:28:30.223Z,42
2022-09-23T12:29:20.676Z,41
2022-09-23T12:30:20.053Z,43
2022-09-23T12:31:21.232Z,44
2022-09-23T12:32:32.562Z,42
2022-09-23T12:33:27.034Z,43
2022-09-23T12:34:24.782Z,44
2022-09-23T12:35:37.276Z,42
2022-09-23T12:36:23.784Z,42
2022-09-23T12:37:29.475Z,42
2022-09-23T12:38:23.341Z,42
2022-09-23T12:39:29.092Z,42
2022-09-23T12:40:30.786Z,42
2022-09-23T12:41:24.624Z,43
2022-09-23T12:42:37.253Z,43
2022-09-23T12:43:31.718Z,43
2022-09-23T12:44:27.742Z,43
2022-09-23T12:45:21.383Z,43
2022-09-23T12:46:34.201Z,43
2022-09-23T12:47:24.076Z,43
2022-09-23T12:48:23.384Z,42
2022-09-23T12:49:34.313Z,43
2022-09-23T12:50:25.189Z,43
2022-09-23T12:51:25.049Z,44
2022-09-23T12:52:21.046Z,43
2022-09-23T12:53:32.208Z,44
2022-09-23T12:54:28.408Z,43
2022-09-23T12:55:23.045Z,44
2022-09-23T12:56:24.821Z,45
2022-09-23T12:57:37.162Z,44
2022-09-23T12:58:19.799Z,43
2022-09-23T12:59:21.914Z,45
2022-09-23T13:00:22.406Z,44
2022-09-23T13:01:21.178Z,44
2022-09-23T13:02:24.254Z,44
2022-09-23T13:03:27.395Z,44
2022-09-23T13:04:23.148Z,44
2022-09-23T13:05:25.400Z,44
2022-09-23T13:06:21.051Z,44
2022-09-23T13:07:27.845Z,45
2022-09-23T13:08:27.402Z,45
2022-09-23T13:09:23.421Z,44
2022-09-23T13:10:35.149Z,44
2022-09-23T13:11:25.524Z,44
2022-09-23T13:12:27.077Z,45
2022-09-23T13:13:23.428Z,44
2022-09-23T13:14:33.276Z,44
2022-09-23T13:15:25.571Z,44
2022-09-23T13:16:23.394Z,43
2022-09-23T13:17:35.234Z,44
2022-09-23T13:18:25.212Z,44
2022-09-23T13:19:22.026Z,44
2022-09-23T13:20:21.359Z,44
2022-09-23T13:21:33.163Z,44
2022-09-23T13:22:29.413Z,43
2022-09-23T13:23:28.162Z,44
2022-09-23T13:24:29.298Z,44
2022-09-23T13:25:29.621Z,44
2022-09-23T13:26:41.427Z,45
2022-09-23T13:27:24.516Z,45
2022-09-23T13:28:31.201Z,44
2022-09-23T13:29:21.277Z,44
2022-09-23T13:30:27.152Z,44
2022-09-23T13:31:33.143Z,44
2022-09-23T13:32:29.139Z,44
2022-09-23T13:33:26.321Z,44
2022-09-23T13:34:24.942Z,44
2022-09-23T13:35:29.075Z,45
2022-09-23T13:36:28.847Z,45
2022-09-23T13:37:23.312Z,44
2022-09-23T13:38:24.953Z,44
2022-09-23T13:39:29.145Z,44
2022-09-23T13:40:25.131Z,44
2022-09-23T13:41:21.286Z,44
2022-09-23T13:42:34.646Z,44
2022-09-23T13:43:28.206Z,44
2022-09-23T13:44:24.102Z,44
2022-09-23T13:45:19.781Z,44
2022-09-23T13:46:24.578Z,45
2022-09-23T13:47:26.501Z,45
2022-09-23T13:48:22.045Z,45
2022-09-23T13:49:24.843Z,45
2022-09-23T13:50:28.060Z,46
2022-09-23T13:51:26.295Z,46
2022-09-23T13:52:25.034Z,46
2022-09-23T13:53:23.227Z,46
2022-09-23T13:54:25.619Z,45
2022-09-23T13:55:23.397Z,45
2022-09-23T13:56:27.495Z,44
2022-09-23T13:57:21.327Z,44
2022-09-23T13:58:23.087Z,45
2022-09-23T13:59:26.066Z,46
2022-09-23T14:00:30.636Z,45
2022-09-23T14:01:21.847Z,46
2022-09-23T14:02:22.120Z,47
2022-09-23T14:03:21.954Z,47
2022-09-23T14:04:24.261Z,47
2022-09-23T14:05:24.667Z,46
2022-09-23T14:06:29.151Z,46
2022-09-23T14:07:32.399Z,45
2022-09-23T14:08:27.423Z,45
2022-09-23T14:09:21.075Z,46
2022-09-23T14:10:24.080Z,46
2022-09-23T14:11:28.425Z,46
2022-09-23T14:12:24.661Z,46
2022-09-23T14:13:34.306Z,45
2022-09-23T14:14:22.880Z,45
2022-09-23T14:15:29.560Z,45
2022-09-23T14:16:23.761Z,45
2022-09-23T14:17:27.035Z,45
2022-09-23T14:18:27.466Z,45
2022-09-23T14:19:25.690Z,44
2022-09-23T14:20:25.891Z,45
2022-09-23T14:21:21.936Z,45
2022-09-23T14:22:26.203Z,45
2022-09-23T14:23:21.418Z,44
2022-09-23T14:24:34.675Z,45
2022-09-23T14:25:29.889Z,47
2022-09-23T14:26:24.468Z,47
2022-09-23T14:27:22.677Z,47
2022-09-23T14:28:26.382Z,47
2022-09-23T14:29:25.401Z,46
2022-09-23T14:30:25.016Z,45
2022-09-23T14:31:35.104Z,45
2022-09-23T14:32:23.810Z,45
2022-09-23T14:33:23.716Z,45
2022-09-23T14:34:29.503Z,46
2022-09-23T14:35:32.883Z,47
2022-09-23T14:36:35.486Z,46
2022-09-23T14:37:21.438Z,45
2022-09-23T14:38:27.530Z,45
2022-09-23T14:39:20.194Z,45
2022-09-23T14:40:23.625Z,45
2022-09-23T14:41:36.618Z,46
2022-09-23T14:42:23.394Z,46
2022-09-23T14:43:27.009Z,46
2022-09-23T14:44:22.504Z,46
2022-09-23T14:45:38.996Z,46
2022-09-23T14:46:28.574Z,45
2022-09-23T14:47:23.820Z,45
2022-09-23T14:48:28.979Z,45
2022-09-23T14:49:29.066Z,46
2022-09-23T14:50:21.156Z,45
2022-09-23T14:51:23.173Z,46
2022-09-23T14:52:33.098Z,45
2022-09-23T14:53:30.058Z,46
2022-09-23T14:54:23.633Z,46
2022-09-23T14:55:36.584Z,46
2022-09-23T14:56:31.140Z,46
2022-09-23T14:57:25.184Z,46
2022-09-23T14:58:22.695Z,47
2022-09-23T14:59:22.134Z,47
2022-09-23T15:00:27.170Z,47
2022-09-23T15:01:26.970Z,47
2022-09-23T15:02:34.975Z,48
2022-09-23T15:03:30.187Z,48
2022-09-23T15:04:28.288Z,48
2022-09-23T15:05:24.549Z,48
2022-09-23T15:06:31.737Z,48
2022-09-23T15:07:28.209Z,49
2022-09-23T15:08:23.144Z,50
2022-09-23T15:09:23.222Z,50
2022-09-23T15:10:39.838Z,49
2022-09-23T15:11:25.033Z,49
2022-09-23T15:12:22.800Z,49
2022-09-23T15:13:31.396Z,49
2022-09-23T15:14:38.173Z,50
2022-09-23T15:15:26.942Z,49
2022-09-23T15:16:23.979Z,49
2022-09-23T15:17:20.869Z,49
2022-09-23T15:18:25.565Z,50
2022-09-23T15:19:22.306Z,51
2022-09-23T15:20:22.320Z,50
2022-09-23T15:21:27.563Z,50
2022-09-23T15:22:23.558Z,50
2022-09-23T15:23:35.026Z,50
2022-09-23T15:24:26.211Z,49
2022-09-23T15:25:30.501Z,50
2022-09-23T15:26:22.593Z,51
2022-09-23T15:27:22.368Z,51
2022-09-23T15:28:27.808Z,52
2022-09-23T15:29:26.117Z,51
2022-09-23T15:30:51.098Z,51
2022-09-23T15:31:33.718Z,52
2022-09-23T15:32:23.427Z,52
2022-09-23T15:33:25.609Z,52
2022-09-23T15:34:34.000Z,52
2022-09-23T15:35:23.256Z,51
2022-09-23T15:36:25.581Z,51
2022-09-23T15:37:25.477Z,51
2022-09-23T15:38:31.611Z,51
2022-09-23T15:39:36.305Z,51
2022-09-23T15:40:21.674Z,51
2022-09-23T15:41:36.570Z,51
2022-09-23T15:42:30.593Z,51
2022-09-23T15:43:24.260Z,51
2022-09-23T15:44:23.767Z,51
2022-09-23T15:45:30.002Z,51
2022-09-23T15:46:26.531Z,50
2022-09-23T15:47:24.162Z,50
2022-09-23T15:48:31.256Z,50
2022-09-23T15:49:31.158Z,51
2022-09-23T15:50:25.833Z,51
2022-09-23T15:51:28.596Z,52
2022-09-23T15:52:31.136Z,51
2022-09-23T15:53:27.798Z,52
2022-09-23T15:54:21.361Z,52
2022-09-23T15:55:21.625Z,51
2022-09-23T15:56:27.306Z,51
2022-09-23T15:57:23.303Z,51
2022-09-23T15:58:22.697Z,51
2022-09-23T15:59:31.232Z,51
2022-09-23T16:00:28.070Z,51
2022-09-23T16:01:26.327Z,51
2022-09-23T16:02:27.376Z,51
2022-09-23T16:03:27.188Z,51
2022-09-23T16:04:24.321Z,52
2022-09-23T16:05:19.349Z,51
2022-09-23T16:06:23.676Z,51
2022-09-23T16:07:27.432Z,51
2022-09-23T16:08:22.635Z,51
2022-09-23T16:09:31.703Z,51
2022-09-23T16:10:21.166Z,51
2022-09-23T16:11:23.103Z,51
2022-09-23T16:12:23.730Z,51
2022-09-23T16:13:22.593Z,51
2022-09-23T16:14:25.172Z,51
2022-09-23T16:15:22.176Z,51
2022-09-23T16:16:33.031Z,51
2022-09-23T16:17:27.735Z,52
2022-09-23T16:18:25.857Z,52
2022-09-23T16:19:34.538Z,52
2022-09-23T16:20:31.937Z,51
2022-09-23T16:21:28.425Z,52
2022-09-23T16:22:23.069Z,52
2022-09-23T16:23:38.069Z,52
2022-09-23T16:24:27.360Z,52
2022-09-23T16:25:25.733Z,52
2022-09-23T16:26:19.156Z,52
2022-09-23T16:27:31.842Z,52
2022-09-23T16:28:26.035Z,51
2022-09-23T16:29:25.430Z,51
2022-09-23T16:30:34.305Z,52
2022-09-23T16:31:24.842Z,52